createdAt,value
2018-03-11T00:00:08.692Z,39.60
2018-03-11T00:02:37.045Z,46.27
2018-03-11T00:05:05.432Z,40.30
2018-03-11T00:07:33.802Z,38.63
2018-03-11T00:10:02.168Z,41.03
2018-03-11T00:12:30.529Z,37.33
2018-03-11T00:14:58.899Z,30.87
2018-03-11T00:17:27.751Z,37.03
2018-03-11T00:19:56.116Z,35.83
2018-03-11T00:22:24.487Z,26.80
2018-03-11T00:24:52.840Z,32.13
2018-03-11T00:27:21.241Z,27.00
2018-03-11T00:29:49.620Z,27.97
2018-03-11T00:32:18.022Z,28.43
2018-03-11T00:34:46.414Z,33.27
2018-03-11T00:37:14.738Z,27.57
2018-03-11T00:39:43.239Z,23.53
2018-03-11T00:42:11.616Z,22.90
2018-03-11T00:44:39.977Z,27.17
2018-03-11T00:47:08.383Z,21.80
2018-03-11T00:49:36.749Z,23.03
2018-03-11T00:52:05.109Z,26.40
2018-03-11T00:54:33.511Z,24.50
2018-03-11T00:57:01.887Z,24.47
2018-03-11T00:59:30.247Z,25.07
2018-03-11T01:01:58.598Z,31.73
2018-03-11T01:04:27.372Z,21.77
2018-03-11T01:06:55.813Z,23.23
2018-03-11T01:09:24.196Z,20.77
2018-03-11T01:11:52.562Z,24.80
2018-03-11T01:14:20.932Z,25.40
2018-03-11T01:16:49.296Z,30.03
2018-03-11T01:19:18.048Z,31.23
2018-03-11T01:21:46.428Z,21.10
2018-03-11T01:24:14.786Z,27.00
2018-03-11T01:26:43.150Z,20.67
2018-03-11T01:29:11.528Z,21.57
2018-03-11T01:31:39.907Z,22.37
2018-03-11T01:34:08.250Z,20.70
2018-03-11T01:36:37.012Z,20.03
2018-03-11T01:39:05.459Z,18.33
2018-03-11T01:41:33.823Z,19.83
2018-03-11T01:44:02.192Z,20.00
2018-03-11T01:46:30.563Z,21.83
2018-03-11T01:48:58.919Z,19.63
2018-03-11T01:51:27.776Z,20.63
2018-03-11T01:53:56.128Z,19.80
2018-03-11T01:56:24.532Z,20.87
2018-03-11T01:58:52.900Z,20.90
2018-03-11T02:01:21.267Z,25.77
2018-03-11T02:03:49.622Z,24.43
2018-03-11T02:06:17.988Z,25.00
2018-03-11T02:08:46.828Z,21.20
2018-03-11T02:11:15.185Z,21.83
2018-03-11T02:13:43.532Z,26.67
2018-03-11T02:16:12.325Z,19.87
2018-03-11T02:18:41.160Z,24.00
2018-03-11T02:21:14.229Z,20.00
2018-03-11T02:23:42.579Z,23.53
2018-03-11T02:26:11.943Z,21.97
2018-03-11T02:28:40.315Z,22.23
2018-03-11T02:31:08.679Z,21.93
2018-03-11T02:33:37.082Z,23.70
2018-03-11T02:36:05.563Z,22.53
2018-03-11T02:38:33.953Z,25.70
2018-03-11T02:41:02.409Z,24.63
2018-03-11T02:43:30.754Z,24.63
2018-03-11T02:45:59.273Z,21.77
2018-03-11T02:48:27.645Z,21.40
2018-03-11T02:50:56.668Z,23.33
2018-03-11T02:53:25.027Z,23.57
2018-03-11T02:55:53.394Z,22.47
2018-03-11T02:58:21.754Z,26.23
2018-03-11T03:00:50.156Z,23.50
2018-03-11T03:03:18.519Z,22.17
2018-03-11T03:05:46.879Z,21.47
2018-03-11T03:08:15.295Z,26.13
2018-03-11T03:10:43.658Z,25.20
2018-03-11T03:13:12.020Z,20.70
2018-03-11T03:15:40.513Z,24.00
2018-03-11T03:18:08.860Z,29.10
2018-03-11T03:20:37.707Z,26.23
2018-03-11T03:23:06.086Z,25.43
2018-03-11T03:25:34.460Z,22.90
2018-03-11T03:28:02.838Z,23.80
2018-03-11T03:30:31.212Z,29.27
2018-03-11T03:32:59.554Z,33.70
2018-03-11T03:35:27.922Z,26.70
2018-03-11T03:37:56.674Z,33.83
2018-03-11T03:40:25.044Z,55.33
2018-03-11T03:42:53.409Z,31.70
2018-03-11T03:45:21.792Z,34.90
2018-03-11T03:47:50.171Z,29.93
2018-03-11T03:50:18.528Z,29.27
2018-03-11T03:52:46.881Z,30.40
2018-03-11T03:55:15.634Z,41.23
2018-03-11T03:57:43.986Z,37.87
2018-03-11T04:00:12.400Z,34.50
2018-03-11T04:02:40.744Z,32.27
2018-03-11T04:05:09.102Z,39.37
2018-03-11T04:07:37.465Z,36.87
2018-03-11T04:10:06.288Z,37.07
2018-03-11T04:12:34.655Z,38.97
2018-03-11T04:15:03.090Z,33.90
2018-03-11T04:17:31.439Z,35.77
2018-03-11T04:19:59.795Z,33.13
2018-03-11T04:22:28.147Z,33.77
2018-03-11T04:24:56.983Z,38.13
2018-03-11T04:27:25.328Z,36.57
2018-03-11T04:29:53.744Z,37.93
2018-03-11T04:32:22.104Z,38.50
2018-03-11T04:34:50.463Z,40.50
2018-03-11T04:37:18.866Z,34.03
2018-03-11T04:39:47.206Z,33.13
2018-03-11T04:42:16.040Z,36.33
2018-03-11T04:44:44.419Z,36.03
2018-03-11T04:47:12.773Z,39.33
2018-03-11T04:49:41.126Z,42.07
2018-03-11T04:52:09.959Z,42.43
2018-03-11T04:54:38.302Z,40.57
2018-03-11T04:57:07.143Z,46.63
2018-03-11T04:59:35.495Z,38.10
2018-03-11T05:02:03.857Z,38.77
2018-03-11T05:04:32.264Z,37.40
2018-03-11T05:07:00.619Z,43.40
2018-03-11T05:09:28.973Z,47.20
2018-03-11T05:11:57.722Z,37.07
2018-03-11T05:14:26.765Z,38.80
2018-03-11T05:16:55.515Z,43.57
2018-03-11T05:19:23.872Z,41.53
2018-03-11T05:21:52.248Z,36.90
2018-03-11T05:24:20.691Z,41.23
2018-03-11T05:26:49.015Z,40.90
2018-03-11T05:29:17.488Z,41.40
2018-03-11T05:31:45.852Z,37.10
2018-03-11T05:34:14.254Z,42.90
2018-03-11T05:36:42.635Z,48.03
2018-03-11T05:39:11.016Z,50.93
2018-03-11T05:41:39.380Z,50.93
2018-03-11T05:44:07.796Z,45.40
2018-03-11T05:46:36.148Z,46.90
2018-03-11T05:49:04.503Z,46.23
2018-03-11T05:51:32.989Z,46.03
2018-03-11T05:54:01.337Z,50.57
2018-03-11T05:56:30.779Z,47.73
2018-03-11T05:58:59.166Z,43.90
2018-03-11T06:01:27.520Z,46.60
2018-03-11T06:03:55.864Z,34.50
2018-03-11T06:06:24.619Z,23.73
2018-03-11T06:08:52.985Z,21.17
2018-03-11T06:11:21.343Z,16.23
2018-03-11T06:13:49.724Z,16.10
2018-03-11T06:16:18.119Z,15.70
2018-03-11T06:18:46.476Z,14.10
2018-03-11T06:21:14.879Z,15.00
2018-03-11T06:23:43.240Z,15.27
2018-03-11T06:26:11.645Z,13.87
2018-03-11T06:28:40.025Z,15.33
2018-03-11T06:31:08.390Z,12.73
2018-03-11T06:33:36.769Z,14.87
2018-03-11T06:36:05.131Z,16.00
2018-03-11T06:38:33.510Z,13.60
2018-03-11T06:41:01.912Z,14.43
2018-03-11T06:43:30.264Z,15.23
2018-03-11T06:45:58.673Z,14.10
2018-03-11T06:48:27.032Z,14.77
2018-03-11T06:50:55.399Z,15.20
2018-03-11T06:53:23.809Z,14.53
2018-03-11T06:55:52.171Z,16.63
2018-03-11T06:58:20.527Z,14.10
2018-03-11T07:00:48.890Z,16.50
2018-03-11T07:03:17.640Z,15.40
2018-03-11T07:05:46.007Z,14.87
2018-03-11T07:08:14.367Z,15.77
2018-03-11T07:10:42.735Z,15.40
2018-03-11T07:13:11.151Z,18.00
2018-03-11T07:15:39.508Z,15.90
2018-03-11T07:18:07.906Z,17.37
2018-03-11T07:20:36.275Z,17.70
2018-03-11T07:23:04.633Z,16.70
2018-03-11T07:25:33.044Z,17.27
2018-03-11T07:28:01.397Z,19.60
2018-03-11T07:30:29.796Z,20.33
2018-03-11T07:32:58.151Z,16.50
2018-03-11T07:35:26.561Z,17.83
2018-03-11T07:37:54.927Z,18.07
2018-03-11T07:40:23.292Z,19.90
2018-03-11T07:42:51.652Z,19.03
2018-03-11T07:45:20.015Z,18.93
2018-03-11T07:47:48.778Z,21.10
2018-03-11T07:50:17.191Z,18.77
2018-03-11T07:52:45.943Z,18.20
2018-03-11T07:55:14.841Z,18.20
2018-03-11T07:57:43.612Z,18.70
2018-03-11T08:00:12.018Z,17.33
2018-03-11T08:02:40.372Z,19.47
2018-03-11T08:05:08.740Z,18.43
2018-03-11T08:07:37.092Z,20.23
2018-03-11T08:10:05.456Z,20.27
2018-03-11T08:12:34.206Z,19.00
2018-03-11T08:15:02.682Z,19.50
2018-03-11T08:17:31.467Z,18.67
2018-03-11T08:19:59.824Z,19.63
2018-03-11T08:22:28.186Z,18.17
2018-03-11T08:24:56.541Z,18.53
2018-03-11T08:30:23.064Z,21.10
2018-03-11T08:32:51.932Z,17.87
2018-03-11T08:35:20.323Z,16.87
2018-03-11T08:37:48.671Z,18.73
2018-03-11T08:40:17.072Z,18.80
2018-03-11T08:42:45.449Z,18.03
2018-03-11T08:45:13.827Z,18.17
2018-03-11T08:47:42.204Z,18.30
2018-03-11T08:50:10.570Z,18.67
2018-03-11T08:52:38.930Z,20.33
2018-03-11T08:55:07.347Z,18.33
2018-03-11T08:57:35.696Z,21.20
2018-03-11T09:00:04.059Z,16.87
2018-03-11T09:02:32.456Z,17.60
2018-03-11T09:05:00.845Z,17.17
2018-03-11T09:07:29.232Z,18.50
2018-03-11T09:09:57.608Z,20.27
2018-03-11T09:12:26.005Z,17.47
2018-03-11T09:14:54.378Z,17.33
2018-03-11T09:17:22.735Z,18.50
2018-03-11T09:19:51.850Z,16.97
2018-03-11T09:22:20.203Z,16.03
2018-03-11T09:24:48.582Z,18.00
2018-03-11T09:27:16.942Z,15.37
2018-03-11T09:29:45.316Z,15.63
2018-03-11T09:32:13.743Z,15.70
2018-03-11T09:34:42.103Z,16.23
2018-03-11T09:37:10.501Z,14.70
2018-03-11T09:39:38.885Z,16.17
2018-03-11T09:42:07.267Z,15.50
2018-03-11T09:44:35.619Z,15.63
2018-03-11T09:47:04.021Z,15.07
2018-03-11T09:49:32.395Z,14.90
2018-03-11T09:52:00.749Z,15.00
2018-03-11T09:54:29.124Z,23.20
2018-03-11T09:56:57.545Z,14.67
2018-03-11T09:59:25.855Z,15.10
2018-03-11T10:03:46.349Z,14.20
2018-03-11T10:06:14.803Z,14.63
2018-03-11T10:08:43.159Z,12.70
2018-03-11T10:11:11.520Z,12.47
2018-03-11T10:13:39.880Z,15.30
2018-03-11T10:16:08.748Z,12.17
2018-03-11T10:18:37.104Z,13.60
2018-03-11T10:21:05.482Z,13.20
2018-03-11T10:23:33.827Z,11.53
2018-03-11T10:26:02.193Z,12.00
2018-03-11T10:28:30.560Z,13.13
2018-03-11T10:30:58.920Z,10.23
2018-03-11T10:33:27.284Z,11.53
2018-03-11T10:35:55.774Z,11.13
2018-03-11T10:38:24.148Z,10.57
2018-03-11T10:40:52.539Z,11.00
2018-03-11T10:43:20.909Z,10.83
2018-03-11T10:45:49.261Z,10.67
2018-03-11T10:48:17.619Z,10.17
2018-03-11T10:50:46.123Z,10.40
2018-03-11T10:53:14.445Z,9.90
2018-03-11T10:55:43.203Z,11.03
2018-03-11T10:58:12.097Z,10.93
2018-03-11T11:00:43.251Z,10.97
2018-03-11T11:03:17.493Z,11.70
2018-03-11T11:05:46.256Z,10.40
2018-03-11T11:08:14.723Z,11.00
2018-03-11T11:10:43.085Z,9.30
2018-03-11T11:13:11.441Z,10.43
2018-03-11T11:15:39.859Z,9.30
2018-03-11T11:18:08.232Z,9.40
2018-03-11T11:20:36.606Z,10.07
2018-03-11T11:23:04.966Z,10.80
2018-03-11T11:25:33.387Z,10.20
2018-03-11T11:28:01.893Z,10.73
2018-03-11T11:30:30.711Z,10.17
2018-03-11T11:32:59.074Z,10.50
2018-03-11T11:35:27.456Z,14.90
2018-03-11T11:37:55.903Z,13.73
2018-03-11T11:40:24.260Z,11.30
2018-03-11T11:42:52.605Z,13.47
2018-03-11T11:45:21.020Z,13.43
2018-03-11T11:47:49.388Z,14.47
2018-03-11T11:50:17.772Z,13.50
2018-03-11T11:52:46.152Z,13.93
2018-03-11T11:55:14.571Z,14.13
2018-03-11T11:57:42.912Z,14.90
2018-03-11T12:00:11.268Z,13.13
2018-03-11T12:02:39.620Z,13.03
2018-03-11T12:05:08.435Z,11.70
2018-03-11T12:07:36.817Z,12.83
2018-03-11T12:10:05.184Z,15.73
2018-03-11T12:12:33.539Z,17.67
2018-03-11T12:15:02.377Z,16.90
2018-03-11T12:17:30.772Z,23.70
2018-03-11T12:19:59.242Z,17.63
2018-03-11T12:22:27.645Z,16.00
2018-03-11T12:24:56.019Z,13.80
2018-03-11T12:27:24.470Z,15.07
2018-03-11T12:29:52.864Z,14.97
2018-03-11T12:32:21.215Z,15.53
2018-03-11T12:34:49.580Z,15.17
2018-03-11T12:37:17.929Z,13.10
2018-03-11T12:39:46.783Z,13.20
2018-03-11T12:42:15.356Z,18.10
2018-03-11T12:44:43.748Z,11.80
2018-03-11T12:47:12.116Z,13.93
2018-03-11T12:49:40.489Z,16.60
2018-03-11T12:52:08.843Z,13.57
2018-03-11T12:54:37.272Z,13.17
2018-03-11T12:57:05.635Z,12.70
2018-03-11T12:59:34.005Z,12.23
2018-03-11T13:02:02.356Z,12.50
2018-03-11T13:04:30.752Z,12.90
2018-03-11T13:06:59.204Z,17.53
2018-03-11T13:09:28.039Z,12.87
2018-03-11T13:11:56.390Z,11.57
2018-03-11T13:14:24.815Z,11.17
2018-03-11T13:16:53.163Z,10.60
2018-03-11T13:19:21.523Z,9.27
2018-03-11T13:21:49.887Z,9.77
2018-03-11T13:24:18.635Z,9.00
2018-03-11T13:26:47.202Z,9.63
2018-03-11T13:29:15.564Z,9.17
2018-03-11T13:31:43.917Z,7.97
2018-03-11T13:34:24.468Z,8.67
2018-03-11T13:36:53.211Z,7.50
2018-03-11T13:39:39.512Z,6.77
2018-03-11T13:42:07.861Z,7.73
2018-03-11T13:44:36.211Z,7.13
2018-03-11T13:47:09.036Z,7.23
2018-03-11T13:49:37.402Z,8.10
2018-03-11T13:52:23.623Z,5.97
2018-03-11T13:54:52.000Z,7.23
2018-03-11T14:00:50.745Z,7.40
2018-03-11T14:03:19.100Z,7.57
2018-03-11T14:05:47.481Z,6.70
2018-03-11T14:08:15.889Z,5.70
2018-03-11T14:10:44.672Z,7.43
2018-03-11T14:13:13.024Z,6.73
2018-03-11T14:15:41.534Z,7.20
2018-03-11T14:18:10.288Z,8.50
2018-03-11T14:20:38.648Z,7.50
2018-03-11T14:23:06.997Z,7.40
2018-03-11T14:25:35.768Z,7.87
2018-03-11T14:28:04.116Z,7.93
2018-03-11T14:30:32.483Z,7.93
2018-03-11T14:33:00.842Z,7.60
2018-03-11T14:35:29.215Z,7.10
2018-03-11T14:37:57.632Z,6.93
2018-03-11T14:40:25.996Z,7.77
2018-03-11T14:42:54.366Z,7.03
2018-03-11T14:45:22.739Z,7.87
2018-03-11T14:47:51.120Z,7.63
2018-03-11T14:50:20.044Z,7.80
2018-03-11T14:52:48.464Z,7.10
2018-03-11T14:55:17.426Z,8.87
2018-03-11T14:57:46.338Z,6.20
2018-03-11T15:00:14.856Z,8.10
2018-03-11T15:02:43.523Z,8.60
2018-03-11T15:05:12.061Z,7.83
2018-03-11T15:07:40.615Z,7.77
2018-03-11T15:10:09.624Z,7.03
2018-03-11T15:12:38.382Z,7.53
2018-03-11T15:15:06.786Z,10.63
2018-03-11T15:17:35.142Z,7.90
2018-03-11T15:20:03.516Z,8.00
2018-03-11T15:22:31.968Z,7.60
2018-03-11T15:25:01.140Z,7.50
2018-03-11T15:27:29.508Z,8.77
2018-03-11T15:29:58.833Z,8.13
2018-03-11T15:32:27.196Z,8.10
2018-03-11T15:34:55.590Z,8.10
2018-03-11T15:37:23.970Z,7.23
2018-03-11T15:39:52.324Z,7.33
2018-03-11T15:42:20.674Z,8.20
2018-03-11T15:44:49.069Z,8.83
2018-03-11T15:47:17.651Z,7.13
2018-03-11T15:49:46.032Z,7.97
2018-03-11T15:52:15.186Z,8.07
2018-03-11T15:54:44.054Z,8.40
2018-03-11T15:57:12.489Z,8.63
2018-03-11T15:59:40.871Z,10.07
2018-03-11T16:02:09.238Z,9.27
2018-03-11T16:04:37.601Z,11.03
2018-03-11T16:07:05.950Z,9.27
2018-03-11T16:09:34.320Z,10.93
2018-03-11T16:12:02.672Z,9.60
2018-03-11T16:14:32.555Z,8.33
2018-03-11T16:17:00.916Z,9.37
2018-03-11T16:19:30.188Z,8.70
2018-03-11T16:21:58.555Z,10.33
2018-03-11T16:24:28.872Z,16.20
2018-03-11T16:26:55.710Z,10.17
2018-03-11T16:29:24.091Z,9.10
2018-03-11T16:31:52.506Z,11.83
2018-03-11T16:34:20.844Z,10.80
2018-03-11T16:36:49.327Z,12.03
2018-03-11T16:39:17.708Z,9.27
2018-03-11T16:41:46.062Z,9.80
2018-03-11T16:44:14.439Z,12.27
2018-03-11T16:46:42.818Z,17.63
2018-03-11T16:49:11.195Z,11.43
2018-03-11T16:51:39.565Z,10.20
2018-03-11T16:54:07.926Z,10.83
2018-03-11T16:56:36.676Z,11.90
2018-03-11T16:59:05.047Z,15.67
2018-03-11T17:01:33.464Z,12.57
2018-03-11T17:04:01.829Z,11.70
2018-03-11T17:06:30.198Z,10.87
2018-03-11T17:08:58.644Z,11.73
2018-03-11T17:11:27.004Z,10.90
2018-03-11T17:13:55.379Z,9.90
2018-03-11T17:16:24.150Z,12.27
2018-03-11T17:18:52.931Z,11.23
2018-03-11T17:21:21.299Z,11.10
2018-03-11T17:23:49.671Z,13.73
2018-03-11T17:26:18.036Z,12.13
2018-03-11T17:28:46.419Z,11.80
2018-03-11T17:31:14.809Z,12.63
2018-03-11T17:33:43.172Z,13.27
2018-03-11T17:36:11.553Z,14.17
2018-03-11T17:38:39.944Z,19.03
2018-03-11T17:41:08.329Z,14.70
2018-03-11T17:43:36.792Z,14.73
2018-03-11T17:46:05.173Z,17.87
2018-03-11T17:48:33.536Z,19.20
2018-03-11T17:51:01.913Z,19.67
2018-03-11T17:53:30.289Z,15.40
2018-03-11T17:55:58.656Z,18.83
2018-03-11T17:58:27.021Z,21.80
2018-03-11T18:00:55.380Z,16.27
2018-03-11T18:03:24.139Z,16.97
2018-03-11T18:05:52.493Z,15.07
2018-03-11T18:08:20.887Z,16.57
2018-03-11T18:10:49.239Z,19.20
2018-03-11T18:13:17.614Z,19.37
2018-03-11T18:15:45.993Z,19.13
2018-03-11T18:18:14.372Z,21.77
2018-03-11T18:20:42.814Z,18.80
2018-03-11T18:23:11.619Z,22.17
2018-03-11T18:25:39.999Z,21.60
2018-03-11T18:28:08.762Z,23.03
2018-03-11T18:30:37.121Z,22.83
2018-03-11T18:33:05.503Z,14.00
2018-03-11T18:35:33.869Z,17.07
2018-03-11T18:38:02.250Z,13.07
2018-03-11T18:40:30.613Z,21.17
2018-03-11T18:42:59.252Z,13.90
2018-03-11T18:45:27.595Z,15.17
2018-03-11T18:47:56.024Z,11.97
2018-03-11T18:50:24.609Z,14.93
2018-03-11T18:52:53.011Z,12.70
2018-03-11T18:55:21.432Z,13.90
2018-03-11T18:57:49.868Z,14.40
2018-03-11T19:02:52.890Z,16.10
2018-03-11T19:05:21.259Z,14.90
2018-03-11T19:07:49.636Z,12.97
2018-03-11T19:10:17.988Z,11.23
2018-03-11T19:12:46.418Z,14.00
2018-03-11T19:15:14.773Z,13.40
2018-03-11T19:17:43.220Z,14.70
2018-03-11T19:20:11.575Z,13.67
2018-03-11T19:22:39.945Z,13.23
2018-03-11T19:25:08.425Z,22.27
2018-03-11T19:27:36.812Z,16.60
2018-03-11T19:30:05.220Z,12.83
2018-03-11T19:32:34.010Z,15.90
2018-03-11T19:35:02.800Z,17.47
2018-03-11T19:37:31.254Z,16.67
2018-03-11T19:39:59.636Z,20.73
2018-03-11T19:42:28.027Z,20.27
2018-03-11T19:44:56.784Z,17.93
2018-03-11T19:47:25.147Z,17.90
2018-03-11T19:49:53.537Z,17.73
2018-03-11T19:52:21.910Z,17.30
2018-03-11T19:54:50.268Z,18.93
2018-03-11T19:57:18.646Z,24.70
2018-03-11T19:59:47.022Z,16.30
2018-03-11T20:02:15.428Z,18.80
2018-03-11T20:04:43.794Z,16.70
2018-03-11T20:07:12.199Z,17.53
2018-03-11T20:09:40.596Z,21.43
2018-03-11T20:12:09.004Z,18.23
2018-03-11T20:14:37.397Z,19.77
2018-03-11T20:17:05.792Z,22.13
2018-03-11T20:19:34.156Z,22.03
2018-03-11T20:22:02.515Z,24.30
2018-03-11T20:24:31.040Z,19.07
2018-03-11T20:26:59.415Z,25.17
2018-03-11T20:29:27.812Z,21.20
2018-03-11T20:31:56.204Z,22.27
2018-03-11T20:34:24.577Z,22.10
2018-03-11T20:36:52.962Z,22.83
2018-03-11T20:39:21.368Z,22.43
2018-03-11T20:41:49.752Z,20.30
2018-03-11T20:44:18.148Z,22.10
2018-03-11T20:46:46.638Z,21.10
2018-03-11T20:49:15.028Z,26.97
2018-03-11T20:51:43.498Z,18.53
2018-03-11T20:54:11.880Z,19.53
2018-03-11T20:56:40.287Z,20.17
2018-03-11T20:59:08.985Z,20.00
2018-03-11T21:01:37.382Z,19.10
2018-03-11T21:04:06.243Z,23.33
2018-03-11T21:06:34.600Z,24.03
2018-03-11T21:09:02.988Z,22.87
2018-03-11T21:11:31.387Z,24.10
2018-03-11T21:13:59.780Z,22.27
2018-03-11T21:16:28.493Z,22.90
2018-03-11T21:18:57.224Z,21.40
2018-03-11T21:21:25.702Z,25.37
2018-03-11T21:23:54.074Z,20.90
2018-03-11T21:26:22.530Z,22.87
2018-03-11T21:28:50.895Z,17.57
2018-03-11T21:31:19.274Z,22.63
2018-03-11T21:33:47.696Z,26.10
2018-03-11T21:36:16.068Z,18.80
2018-03-11T21:38:44.450Z,31.13
2018-03-11T21:41:13.248Z,22.80
2018-03-11T21:43:41.629Z,24.83
2018-03-11T21:46:10.009Z,20.50
2018-03-11T21:48:38.373Z,22.30
2018-03-11T21:51:06.757Z,18.50
2018-03-11T21:53:35.145Z,21.67
2018-03-11T21:56:03.549Z,19.30
2018-03-11T21:58:31.999Z,20.67
2018-03-11T22:01:00.557Z,19.00
2018-03-11T22:03:28.958Z,21.07
2018-03-11T22:05:57.341Z,19.87
2018-03-11T22:08:25.707Z,24.03
2018-03-11T22:10:54.202Z,23.23
2018-03-11T22:13:22.584Z,17.97
2018-03-11T22:15:51.083Z,24.33
2018-03-11T22:18:19.893Z,20.10
2018-03-11T22:20:48.276Z,23.00
2018-03-11T22:23:17.064Z,26.07
2018-03-11T22:25:45.545Z,24.87
2018-03-11T22:28:13.976Z,24.97
2018-03-11T22:30:42.391Z,30.27
2018-03-11T22:33:11.224Z,21.07
2018-03-11T22:35:39.996Z,26.03
2018-03-11T22:38:08.390Z,23.90
2018-03-11T22:40:36.767Z,19.77
2018-03-11T22:43:05.157Z,22.67
2018-03-11T22:45:33.576Z,20.07
2018-03-11T22:48:02.028Z,23.20
2018-03-11T22:50:30.443Z,27.73
2018-03-11T22:52:58.861Z,19.77
2018-03-11T22:55:28.177Z,27.97
2018-03-11T22:57:56.599Z,26.23
2018-03-11T23:00:24.959Z,20.33
2018-03-11T23:02:53.340Z,22.00
2018-03-11T23:05:21.714Z,23.60
2018-03-11T23:07:51.004Z,19.60
2018-03-11T23:10:19.420Z,26.23
2018-03-11T23:12:48.221Z,23.40
2018-03-11T23:15:16.976Z,36.50
2018-03-11T23:17:45.355Z,28.47
2018-03-11T23:20:13.722Z,23.43
2018-03-11T23:22:42.097Z,22.87
2018-03-11T23:25:10.455Z,22.47
2018-03-11T23:27:38.828Z,27.03
2018-03-11T23:30:07.203Z,22.90
2018-03-11T23:32:35.582Z,25.50
2018-03-11T23:35:03.952Z,21.00
2018-03-11T23:37:32.384Z,22.13
2018-03-11T23:40:00.778Z,28.23
2018-03-11T23:42:29.143Z,22.70
2018-03-11T23:44:57.516Z,22.17
2018-03-11T23:47:25.926Z,28.60
2018-03-11T23:49:54.769Z,28.13
2018-03-11T23:52:23.156Z,28.90
2018-03-11T23:54:51.532Z,32.70
2018-03-11T23:57:19.905Z,21.80
2018-03-11T23:59:48.265Z,24.93
